createdAt,value
2022-12-11T00:01:55.326Z,1.85
2022-12-11T00:04:21.621Z,1.80
2022-12-11T00:06:47.894Z,1.74
2022-12-11T00:09:14.177Z,1.84
2022-12-11T00:11:40.431Z,1.79
2022-12-11T00:14:06.711Z,1.79
2022-12-11T00:16:33.018Z,1.68
2022-12-11T00:18:59.296Z,1.64
2022-12-11T00:21:25.549Z,1.67
2022-12-11T00:23:51.805Z,1.64
2022-12-11T00:26:18.072Z,1.65
2022-12-11T00:28:44.349Z,1.70
2022-12-11T00:31:10.609Z,1.73
2022-12-11T00:33:36.988Z,1.73
2022-12-11T00:36:03.256Z,1.68
2022-12-11T00:38:29.510Z,1.64
2022-12-11T00:40:55.781Z,1.60
2022-12-11T00:43:22.062Z,1.54
2022-12-11T00:45:48.386Z,1.50
2022-12-11T00:48:14.684Z,1.53
2022-12-11T00:50:40.952Z,1.49
2022-12-11T00:53:07.204Z,1.55
2022-12-11T00:55:33.462Z,1.61
2022-12-11T00:57:59.709Z,1.56
2022-12-11T01:00:25.987Z,1.54
2022-12-11T01:02:52.291Z,1.53
2022-12-11T01:05:18.694Z,1.50
2022-12-11T01:07:44.993Z,1.53
2022-12-11T01:10:11.334Z,1.50
2022-12-11T01:12:37.660Z,1.45
2022-12-11T01:15:03.914Z,1.47
2022-12-11T01:17:30.199Z,1.49
2022-12-11T01:19:56.452Z,1.49
2022-12-11T01:22:22.711Z,1.45
2022-12-11T01:24:48.952Z,1.42
2022-12-11T01:27:15.216Z,1.40
2022-12-11T01:29:41.466Z,1.38
2022-12-11T01:32:07.732Z,1.27
2022-12-11T01:34:33.992Z,1.20
2022-12-11T01:37:00.274Z,1.12
2022-12-11T01:39:26.530Z,1.13
2022-12-11T01:41:52.786Z,1.16
2022-12-11T01:44:19.088Z,1.02
2022-12-11T01:46:45.340Z,0.96
2022-12-11T01:49:11.602Z,0.91
2022-12-11T01:51:37.849Z,1.02
2022-12-11T01:54:04.095Z,1.04
2022-12-11T01:56:30.346Z,1.03
2022-12-11T01:58:56.607Z,1.00
2022-12-11T02:01:22.924Z,1.09
2022-12-11T02:03:49.198Z,1.12
2022-12-11T02:06:15.455Z,1.10
2022-12-11T02:08:41.761Z,1.05
2022-12-11T02:11:08.025Z,1.05
2022-12-11T02:13:34.293Z,1.00
2022-12-11T02:16:00.650Z,0.91
2022-12-11T02:18:26.934Z,0.85
2022-12-11T02:20:53.189Z,0.72
2022-12-11T02:23:19.439Z,0.64
2022-12-11T02:25:45.718Z,0.52
2022-12-11T02:28:11.973Z,0.45
2022-12-11T02:30:38.254Z,0.43
2022-12-11T02:33:04.505Z,0.47
2022-12-11T02:35:30.791Z,0.56
2022-12-11T02:37:57.050Z,0.66
2022-12-11T02:40:23.324Z,0.70
2022-12-11T02:42:49.574Z,0.65
2022-12-11T02:45:15.838Z,0.66
2022-12-11T02:47:42.101Z,0.69
2022-12-11T02:50:08.382Z,0.76
2022-12-11T02:52:34.640Z,0.77
2022-12-11T02:55:00.886Z,0.83
2022-12-11T02:57:27.145Z,0.89
2022-12-11T02:59:53.389Z,0.87
2022-12-11T03:02:19.695Z,0.83
2022-12-11T03:04:46.018Z,0.77
2022-12-11T03:07:12.434Z,0.69
2022-12-11T03:09:38.726Z,0.62
2022-12-11T03:12:04.970Z,0.55
2022-12-11T03:14:31.221Z,0.45
2022-12-11T03:16:57.469Z,0.38
2022-12-11T03:19:23.733Z,0.32
2022-12-11T03:21:49.986Z,0.37
2022-12-11T03:24:16.265Z,0.39
2022-12-11T03:26:42.631Z,0.39
2022-12-11T03:29:08.893Z,0.39
2022-12-11T03:31:35.165Z,0.45
2022-12-11T03:34:01.440Z,0.45
2022-12-11T03:36:27.694Z,0.48
2022-12-11T03:38:53.938Z,0.52
2022-12-11T03:41:20.308Z,0.53
2022-12-11T03:43:46.569Z,0.55
2022-12-11T03:46:12.879Z,0.58
2022-12-11T03:48:39.220Z,0.67
2022-12-11T03:51:05.485Z,0.55
2022-12-11T03:53:31.730Z,0.47
2022-12-11T03:55:57.977Z,0.40
2022-12-11T03:58:24.244Z,0.31
2022-12-11T04:00:50.509Z,0.40
2022-12-11T04:03:16.771Z,0.42
2022-12-11T04:05:43.021Z,0.50
2022-12-11T04:08:09.296Z,0.50
2022-12-11T04:10:35.593Z,0.54
2022-12-11T04:13:01.857Z,0.50
2022-12-11T04:15:28.164Z,0.41
2022-12-11T04:17:54.403Z,0.42
2022-12-11T04:20:20.657Z,0.43
2022-12-11T04:22:46.909Z,0.42
2022-12-11T04:25:13.466Z,0.41
2022-12-11T04:27:39.965Z,0.36
2022-12-11T04:30:06.217Z,0.25
2022-12-11T04:32:32.494Z,0.06
2022-12-11T04:34:58.763Z,0.07
2022-12-11T04:37:25.002Z,-0.12
2022-12-11T04:39:51.281Z,-0.19
2022-12-11T04:42:17.534Z,-0.14
2022-12-11T04:44:43.801Z,-0.22
2022-12-11T04:47:10.057Z,-0.25
2022-12-11T04:49:36.345Z,-0.33
2022-12-11T04:52:02.609Z,-0.38
2022-12-11T04:54:28.883Z,-0.40
2022-12-11T04:56:55.168Z,-0.48
2022-12-11T04:59:21.421Z,-0.50
2022-12-11T05:01:47.865Z,-0.60
2022-12-11T05:04:14.251Z,-0.66
2022-12-11T05:06:40.495Z,-0.65
2022-12-11T05:09:06.840Z,-0.70
2022-12-11T05:11:33.111Z,-0.81
2022-12-11T05:13:59.357Z,-0.94
2022-12-11T05:16:25.700Z,-0.84
2022-12-11T05:18:51.988Z,-0.93
2022-12-11T05:21:18.298Z,-0.82
2022-12-11T05:23:44.581Z,-0.75
2022-12-11T05:26:10.861Z,-0.81
2022-12-11T05:28:37.115Z,-0.76
2022-12-11T05:31:03.412Z,-0.73
2022-12-11T05:33:29.725Z,-0.81
2022-12-11T05:35:56.008Z,-0.76
2022-12-11T05:38:22.264Z,-0.81
2022-12-11T05:40:48.549Z,-0.77
2022-12-11T05:43:14.807Z,-0.72
2022-12-11T05:45:41.045Z,-0.71
2022-12-11T05:48:07.309Z,-0.60
2022-12-11T05:50:33.777Z,-0.66
2022-12-11T05:53:00.072Z,-0.55
2022-12-11T05:55:26.318Z,-0.66
2022-12-11T05:57:52.566Z,-0.82
2022-12-11T06:00:18.857Z,-0.79
2022-12-11T06:02:45.217Z,-0.81
2022-12-11T06:05:11.850Z,-0.88
2022-12-11T06:07:38.233Z,-0.95
2022-12-11T06:10:04.535Z,-0.96
2022-12-11T06:12:30.809Z,-0.95
2022-12-11T06:14:57.086Z,-1.01
2022-12-11T06:17:23.346Z,-1.07
2022-12-11T06:19:49.606Z,-1.08
2022-12-11T06:22:15.882Z,-0.92
2022-12-11T06:24:42.142Z,-0.92
2022-12-11T06:27:08.392Z,-0.83
2022-12-11T06:29:34.644Z,-0.87
2022-12-11T06:32:00.959Z,-0.83
2022-12-11T06:34:27.239Z,-0.74
2022-12-11T06:36:53.499Z,-0.74
2022-12-11T06:39:19.762Z,-0.83
2022-12-11T06:41:46.018Z,-0.93
2022-12-11T06:44:12.261Z,-0.94
2022-12-11T06:46:38.503Z,-1.00
2022-12-11T06:49:04.769Z,-1.14
2022-12-11T06:51:31.044Z,-1.27
2022-12-11T06:53:57.300Z,-1.25
2022-12-11T06:56:23.542Z,-1.21
2022-12-11T06:58:49.838Z,-1.29
2022-12-11T07:01:16.147Z,-1.28
2022-12-11T07:03:42.452Z,-1.20
2022-12-11T07:06:08.717Z,-1.17
2022-12-11T07:08:34.974Z,-1.20
2022-12-11T07:11:01.230Z,-1.02
2022-12-11T07:13:27.504Z,-1.08
2022-12-11T07:15:53.763Z,-1.00
2022-12-11T07:18:20.036Z,-0.98
2022-12-11T07:20:46.309Z,-1.37
2022-12-11T07:23:12.658Z,-1.54
2022-12-11T07:25:38.908Z,-1.47
2022-12-11T07:28:05.166Z,-1.65
2022-12-11T07:30:31.414Z,-1.65
2022-12-11T07:32:57.736Z,-1.72
2022-12-11T07:35:24.040Z,-1.70
2022-12-11T07:37:50.309Z,-1.58
2022-12-11T07:40:16.565Z,-1.50
2022-12-11T07:42:46.124Z,-1.32
2022-12-11T07:45:13.084Z,-1.22
2022-12-11T07:47:39.499Z,-1.13
2022-12-11T07:50:05.771Z,-1.11
2022-12-11T07:52:32.034Z,-0.96
2022-12-11T07:54:58.380Z,-0.97
2022-12-11T07:57:24.658Z,-0.97
2022-12-11T07:59:50.904Z,-1.05
2022-12-11T08:02:17.203Z,-0.95
2022-12-11T08:04:43.508Z,-1.09
2022-12-11T08:07:09.781Z,-1.16
2022-12-11T08:09:36.022Z,-1.29
2022-12-11T08:12:02.281Z,-0.98
2022-12-11T08:14:28.534Z,-1.02
2022-12-11T08:16:54.858Z,-0.90
2022-12-11T08:19:21.150Z,-0.84
2022-12-11T08:21:47.409Z,-0.91
2022-12-11T08:24:13.686Z,-0.75
2022-12-11T08:26:40.065Z,-0.85
2022-12-11T08:29:06.379Z,-0.68
2022-12-11T08:31:32.633Z,-0.64
2022-12-11T08:33:58.902Z,-0.59
2022-12-11T08:36:25.209Z,-0.58
2022-12-11T08:38:51.516Z,-0.56
2022-12-11T08:41:17.765Z,-0.49
2022-12-11T08:43:44.005Z,-0.50
2022-12-11T08:46:10.346Z,-0.48
2022-12-11T08:48:36.636Z,-0.54
2022-12-11T08:51:02.901Z,-0.71
2022-12-11T08:53:29.158Z,-0.60
2022-12-11T08:55:55.398Z,-0.64
2022-12-11T08:58:21.651Z,-0.56
2022-12-11T09:00:47.916Z,-0.58
2022-12-11T09:03:14.335Z,-0.57
2022-12-11T09:05:40.612Z,-0.55
2022-12-11T09:08:06.916Z,-0.57
2022-12-11T09:10:33.200Z,-0.95
2022-12-11T09:12:59.452Z,-0.92
2022-12-11T09:15:25.730Z,-1.05
2022-12-11T09:17:51.975Z,-0.92
2022-12-11T09:20:18.261Z,-1.03
2022-12-11T09:22:44.507Z,-0.93
2022-12-11T09:25:11.170Z,-1.07
2022-12-11T09:27:37.561Z,-1.05
2022-12-11T09:30:03.819Z,-0.89
2022-12-11T09:32:30.101Z,-0.77
2022-12-11T09:34:56.367Z,-0.97
2022-12-11T09:37:22.633Z,-1.02
2022-12-11T09:39:49.004Z,-0.90
2022-12-11T09:42:15.253Z,-0.96
2022-12-11T09:44:41.557Z,-0.92
2022-12-11T09:47:07.837Z,-1.32
2022-12-11T09:49:34.135Z,-1.33
2022-12-11T09:52:00.388Z,-1.58
2022-12-11T09:54:26.645Z,-1.48
2022-12-11T09:56:52.910Z,-1.51
2022-12-11T09:59:19.186Z,-1.54
2022-12-11T10:01:45.503Z,-1.59
2022-12-11T10:04:11.837Z,-1.46
2022-12-11T10:06:38.121Z,-1.32
2022-12-11T10:09:04.386Z,-1.35
2022-12-11T10:11:30.670Z,-1.37
2022-12-11T10:13:56.998Z,-1.20
2022-12-11T10:16:23.270Z,-1.07
2022-12-11T10:18:49.537Z,-1.03
2022-12-11T10:21:15.832Z,-0.89
2022-12-11T10:23:42.098Z,-0.73
2022-12-11T10:26:08.365Z,-0.72
2022-12-11T10:28:34.638Z,-0.70
2022-12-11T10:31:00.955Z,-0.69
2022-12-11T10:33:27.234Z,-0.58
2022-12-11T10:35:53.503Z,-0.42
2022-12-11T10:38:19.781Z,-0.31
2022-12-11T10:40:46.047Z,-0.22
2022-12-11T10:43:12.369Z,-0.16
2022-12-11T10:45:38.635Z,-0.13
2022-12-11T10:48:04.893Z,-0.12
2022-12-11T10:50:31.180Z,-0.22
2022-12-11T10:52:57.453Z,-0.03
2022-12-11T10:55:23.743Z,0.05
2022-12-11T10:57:49.985Z,0.01
2022-12-11T11:00:16.249Z,0.15
2022-12-11T11:02:42.559Z,0.17
2022-12-11T11:05:09.146Z,0.18
2022-12-11T11:07:35.620Z,0.14
2022-12-11T11:10:01.912Z,0.29
2022-12-11T11:12:28.168Z,0.39
2022-12-11T11:14:54.428Z,0.14
2022-12-11T11:17:20.747Z,0.26
2022-12-11T11:19:47.023Z,0.25
2022-12-11T11:22:13.286Z,0.29
2022-12-11T11:24:39.560Z,0.36
2022-12-11T11:27:13.350Z,0.65
2022-12-11T11:29:40.026Z,0.69
2022-12-11T11:32:06.299Z,0.64
2022-12-11T11:34:32.585Z,0.65
2022-12-11T11:36:58.829Z,0.75
2022-12-11T11:39:25.076Z,0.88
2022-12-11T11:41:51.347Z,0.93
2022-12-11T11:44:17.618Z,0.86
2022-12-11T11:46:43.975Z,1.03
2022-12-11T11:49:10.279Z,1.10
2022-12-11T11:51:36.550Z,1.11
2022-12-11T11:54:02.864Z,0.98
2022-12-11T11:56:29.117Z,1.13
2022-12-11T11:58:55.404Z,1.15
2022-12-11T12:01:21.682Z,1.04
2022-12-11T12:03:47.978Z,1.20
2022-12-11T12:06:15.540Z,1.31
2022-12-11T12:08:42.019Z,1.33
2022-12-11T12:11:08.364Z,1.43
2022-12-11T12:13:50.612Z,1.58
2022-12-11T12:16:50.414Z,1.75
2022-12-11T12:19:03.317Z,1.78
2022-12-11T12:21:29.584Z,1.83
2022-12-11T12:23:55.842Z,1.87
2022-12-11T12:26:22.115Z,1.96
2022-12-11T12:28:48.398Z,1.96
2022-12-11T12:31:14.703Z,1.96
2022-12-11T12:33:41.075Z,1.99
2022-12-11T12:36:07.545Z,2.05
2022-12-11T12:38:33.841Z,2.01
2022-12-11T12:41:00.111Z,2.13
2022-12-11T12:43:26.383Z,2.19
2022-12-11T12:45:52.726Z,2.12
2022-12-11T12:48:19.075Z,1.99
2022-12-11T12:50:45.325Z,2.24
2022-12-11T12:53:11.581Z,2.30
2022-12-11T12:55:37.857Z,2.35
2022-12-11T12:58:04.155Z,2.31
2022-12-11T13:00:30.469Z,2.35
2022-12-11T13:02:56.743Z,2.31
2022-12-11T13:05:23.061Z,2.18
2022-12-11T13:07:54.015Z,2.20
2022-12-11T13:10:20.919Z,2.26
2022-12-11T13:12:47.192Z,2.20
2022-12-11T13:15:13.690Z,2.22
2022-12-11T13:17:40.196Z,2.18
2022-12-11T13:20:06.445Z,2.18
2022-12-11T13:22:32.777Z,2.10
2022-12-11T13:24:59.279Z,2.01
2022-12-11T13:27:25.551Z,2.12
2022-12-11T13:29:51.791Z,2.12
2022-12-11T13:32:18.221Z,2.15
2022-12-11T13:34:44.517Z,2.16
2022-12-11T13:37:10.832Z,2.19
2022-12-11T13:39:37.348Z,2.28
2022-12-11T13:42:03.629Z,2.22
2022-12-11T13:44:29.936Z,2.11
2022-12-11T13:46:56.205Z,2.24
2022-12-11T13:49:22.495Z,2.32
2022-12-11T13:51:48.754Z,2.45
2022-12-11T13:54:16.953Z,2.52
2022-12-11T13:56:43.830Z,2.63
2022-12-11T13:59:10.137Z,2.60
2022-12-11T14:01:36.442Z,2.67
2022-12-11T14:04:02.727Z,2.72
2022-12-11T14:06:28.983Z,2.76
2022-12-11T14:08:55.275Z,2.86
2022-12-11T14:11:21.566Z,2.88
2022-12-11T14:13:47.871Z,2.90
2022-12-11T14:16:14.249Z,2.94
2022-12-11T14:18:40.505Z,2.94
2022-12-11T14:21:06.785Z,3.00
2022-12-11T14:23:33.063Z,3.06
2022-12-11T14:25:59.312Z,3.00
2022-12-11T14:28:25.570Z,3.00
2022-12-11T14:30:51.846Z,3.00
2022-12-11T14:33:18.124Z,2.95
2022-12-11T14:35:44.405Z,2.97
2022-12-11T14:38:10.679Z,2.91
2022-12-11T14:40:36.955Z,2.85
2022-12-11T14:43:03.225Z,2.79
2022-12-11T14:45:29.578Z,2.77
2022-12-11T14:47:55.870Z,2.65
2022-12-11T14:50:22.126Z,2.55
2022-12-11T14:52:48.403Z,2.53
2022-12-11T14:55:14.688Z,2.38
2022-12-11T14:57:40.960Z,2.22
2022-12-11T15:00:07.217Z,2.18
2022-12-11T15:02:33.566Z,2.18
2022-12-11T15:04:59.859Z,2.14
2022-12-11T15:07:26.110Z,2.15
2022-12-11T15:09:52.368Z,1.93
2022-12-11T15:12:18.612Z,1.72
2022-12-11T15:14:44.897Z,1.61
2022-12-11T15:17:11.173Z,1.59
2022-12-11T15:19:37.427Z,1.55
2022-12-11T15:22:03.822Z,1.53
2022-12-11T15:24:30.179Z,1.51
2022-12-11T15:26:56.501Z,1.44
2022-12-11T15:29:22.775Z,1.47
2022-12-11T15:31:49.046Z,1.56
2022-12-11T15:34:15.306Z,1.50
2022-12-11T15:36:41.554Z,1.48
2022-12-11T15:39:07.832Z,1.33
2022-12-11T15:41:34.103Z,1.27
2022-12-11T15:44:00.385Z,1.06
2022-12-11T15:46:26.829Z,0.92
2022-12-11T15:48:53.291Z,0.91
2022-12-11T15:51:19.551Z,0.80
2022-12-11T15:53:45.930Z,0.81
2022-12-11T15:56:12.184Z,0.76
2022-12-11T15:58:38.460Z,0.79
2022-12-11T16:01:04.747Z,0.81
2022-12-11T16:03:31.052Z,0.75
2022-12-11T16:05:57.321Z,0.73
2022-12-11T16:08:23.682Z,0.66
2022-12-11T16:10:49.982Z,0.59
2022-12-11T16:13:16.256Z,0.67
2022-12-11T16:15:42.597Z,0.63
2022-12-11T16:18:08.930Z,0.57
2022-12-11T16:20:35.257Z,0.51
2022-12-11T16:23:01.581Z,0.44
2022-12-11T16:25:27.887Z,0.48
2022-12-11T16:27:54.160Z,0.43
2022-12-11T16:30:20.433Z,0.29
2022-12-11T16:32:46.720Z,0.13
2022-12-11T16:35:13.337Z,0.01
2022-12-11T16:37:39.810Z,-0.17
2022-12-11T16:40:06.124Z,-0.15
2022-12-11T16:42:32.369Z,-0.28
2022-12-11T16:44:58.657Z,-0.38
2022-12-11T16:47:24.950Z,-0.34
2022-12-11T16:49:51.227Z,-0.43
2022-12-11T16:52:21.964Z,-0.62
2022-12-11T16:54:48.642Z,-0.73
2022-12-11T16:57:14.951Z,-0.84
2022-12-11T16:59:41.259Z,-1.03
2022-12-11T17:02:07.541Z,-1.07
2022-12-11T17:04:33.801Z,-1.14
2022-12-11T17:07:00.102Z,-1.02
2022-12-11T17:09:26.375Z,-0.90
2022-12-11T17:11:52.652Z,-0.97
2022-12-11T17:14:18.931Z,-1.00
2022-12-11T17:16:45.197Z,-1.13
2022-12-11T17:19:11.468Z,-1.19
2022-12-11T17:21:37.738Z,-1.19
2022-12-11T17:24:04.021Z,-1.19
2022-12-11T17:26:30.277Z,-1.24
2022-12-11T17:28:56.538Z,-1.24
2022-12-11T17:31:22.880Z,-1.18
2022-12-11T17:33:49.188Z,-1.29
2022-12-11T17:36:15.462Z,-1.31
2022-12-11T17:38:41.743Z,-1.40
2022-12-11T17:41:08.009Z,-1.52
2022-12-11T17:43:34.284Z,-1.51
2022-12-11T17:46:00.583Z,-1.57
2022-12-11T17:48:26.877Z,-1.51
2022-12-11T17:50:53.147Z,-1.46
2022-12-11T17:53:19.439Z,-1.68
2022-12-11T17:55:45.804Z,-1.66
2022-12-11T17:58:12.090Z,-1.63
2022-12-11T18:00:38.354Z,-1.58
2022-12-11T18:03:04.595Z,-1.59
2022-12-11T18:05:30.856Z,-1.67
2022-12-11T18:07:58.120Z,-1.75
2022-12-11T18:10:24.661Z,-1.80
2022-12-11T18:12:50.913Z,-1.78
2022-12-11T18:15:17.175Z,-1.93
2022-12-11T18:17:43.463Z,-1.94
2022-12-11T18:20:09.729Z,-1.93
2022-12-11T18:22:35.999Z,-1.97
2022-12-11T18:25:09.313Z,-2.02
2022-12-11T18:27:36.018Z,-2.05
2022-12-11T18:30:02.300Z,-2.05
2022-12-11T18:32:28.570Z,-2.10
2022-12-11T18:34:54.866Z,-2.06
2022-12-11T18:37:26.202Z,-2.13
2022-12-11T18:39:54.141Z,-2.11
2022-12-11T18:42:35.910Z,-2.12
2022-12-11T18:45:02.204Z,-1.95
2022-12-11T18:47:28.520Z,-1.95
2022-12-11T18:49:54.778Z,-1.91
2022-12-11T18:52:21.043Z,-1.99
2022-12-11T18:54:47.317Z,-2.00
2022-12-11T18:57:13.591Z,-2.11
2022-12-11T18:59:39.849Z,-2.15
2022-12-11T19:02:06.121Z,-2.20
2022-12-11T19:04:32.435Z,-2.26
2022-12-11T19:06:58.695Z,-2.46
2022-12-11T19:09:24.969Z,-2.55
2022-12-11T19:11:51.239Z,-2.50
2022-12-11T19:14:17.522Z,-2.48
2022-12-11T19:16:43.782Z,-2.40
2022-12-11T19:19:10.058Z,-2.55
2022-12-11T19:21:36.310Z,-2.60
2022-12-11T19:24:02.592Z,-2.62
2022-12-11T19:26:28.901Z,-2.61
2022-12-11T19:28:55.177Z,-2.67
2022-12-11T19:31:21.488Z,-2.82
2022-12-11T19:33:47.824Z,-2.73
2022-12-11T19:36:14.097Z,-2.82
2022-12-11T19:38:40.504Z,-2.68
2022-12-11T19:41:06.801Z,-2.64
2022-12-11T19:43:33.196Z,-2.64
2022-12-11T19:45:59.468Z,-2.64
2022-12-11T19:48:25.740Z,-2.81
2022-12-11T19:50:52.016Z,-2.71
2022-12-11T19:53:18.339Z,-2.82
2022-12-11T19:55:44.700Z,-2.75
2022-12-11T19:58:10.968Z,-2.78
2022-12-11T20:00:37.281Z,-2.90
2022-12-11T20:03:03.622Z,-2.84
2022-12-11T20:05:29.921Z,-2.92
2022-12-11T20:07:59.500Z,-2.97
2022-12-11T20:10:31.701Z,-3.17
2022-12-11T20:12:57.977Z,-3.16
2022-12-11T20:15:24.238Z,-3.12
2022-12-11T20:17:50.519Z,-3.14
2022-12-11T20:20:16.798Z,-3.27
2022-12-11T20:22:43.129Z,-3.09
2022-12-11T20:25:09.690Z,-3.06
2022-12-11T20:27:36.095Z,-3.04
2022-12-11T20:30:02.340Z,-3.00
2022-12-11T20:32:28.615Z,-3.02
2022-12-11T20:34:54.910Z,-2.96
2022-12-11T20:37:21.185Z,-3.06
2022-12-11T20:39:47.445Z,-3.08
2022-12-11T20:42:13.727Z,-3.15
2022-12-11T20:44:42.823Z,-3.16
2022-12-11T20:47:13.503Z,-3.08
2022-12-11T20:49:39.776Z,-3.13
2022-12-11T20:52:06.029Z,-3.04
2022-12-11T20:54:32.391Z,-3.02
2022-12-11T20:56:58.663Z,-3.01
2022-12-11T20:59:24.982Z,-3.13
2022-12-11T21:01:51.288Z,-3.17
2022-12-11T21:04:18.682Z,-3.30
2022-12-11T21:06:44.946Z,-3.14
2022-12-11T21:09:11.208Z,-3.13
2022-12-11T21:11:37.551Z,-3.12
2022-12-11T21:14:03.855Z,-3.12
2022-12-11T21:16:30.231Z,-3.23
2022-12-11T21:18:56.602Z,-3.10
2022-12-11T21:21:22.900Z,-3.12
2022-12-11T21:23:49.146Z,-3.25
2022-12-11T21:26:15.454Z,-3.27
2022-12-11T21:28:41.741Z,-3.26
2022-12-11T21:31:08.077Z,-3.15
2022-12-11T21:33:34.337Z,-3.10
2022-12-11T21:36:00.697Z,-2.98
2022-12-11T21:38:26.991Z,-2.97
2022-12-11T21:40:53.239Z,-2.97
2022-12-11T21:43:19.496Z,-3.04
2022-12-11T21:46:00.869Z,-2.95
2022-12-11T21:48:28.381Z,-2.87
2022-12-11T21:50:54.759Z,-2.82
2022-12-11T21:53:21.091Z,-2.79
2022-12-11T21:55:47.343Z,-2.98
2022-12-11T21:58:13.699Z,-2.98
2022-12-11T22:00:39.974Z,-3.03
2022-12-11T22:03:06.293Z,-3.04
2022-12-11T22:05:32.549Z,-3.15
2022-12-11T22:07:58.861Z,-3.26
2022-12-11T22:10:25.138Z,-3.26
2022-12-11T22:12:51.385Z,-3.27
2022-12-11T22:15:17.665Z,-3.29
2022-12-11T22:17:43.928Z,-3.35
2022-12-11T22:20:10.209Z,-3.22
2022-12-11T22:22:36.495Z,-3.17
2022-12-11T22:25:02.746Z,-3.11
2022-12-11T22:27:28.981Z,-3.07
2022-12-11T22:29:55.260Z,-3.07
2022-12-11T22:32:21.519Z,-3.18
2022-12-11T22:34:47.767Z,-3.08
2022-12-11T22:37:14.023Z,-3.07
2022-12-11T22:39:40.269Z,-3.11
2022-12-11T22:42:06.543Z,-3.17
2022-12-11T22:44:32.821Z,-3.26
2022-12-11T22:46:59.127Z,-3.33
2022-12-11T22:49:25.401Z,-3.34
2022-12-11T22:51:51.682Z,-3.35
2022-12-11T22:54:17.978Z,-3.42
2022-12-11T22:56:44.237Z,-3.42
2022-12-11T22:59:10.490Z,-3.36
2022-12-11T23:01:36.770Z,-3.35
2022-12-11T23:04:03.067Z,-3.45
2022-12-11T23:06:29.498Z,-3.40
2022-12-11T23:08:55.838Z,-3.43
2022-12-11T23:11:22.174Z,-3.34
2022-12-11T23:13:48.449Z,-3.48
2022-12-11T23:16:14.720Z,-3.39
2022-12-11T23:18:41.049Z,-3.32
2022-12-11T23:21:07.309Z,-3.26
2022-12-11T23:23:33.667Z,-3.15
2022-12-11T23:25:59.912Z,-3.17
2022-12-11T23:28:26.154Z,-3.13
2022-12-11T23:30:52.479Z,-3.07
2022-12-11T23:33:18.796Z,-3.15
2022-12-11T23:35:45.078Z,-3.18
2022-12-11T23:38:11.335Z,-3.10
2022-12-11T23:40:37.622Z,-3.09
2022-12-11T23:43:03.883Z,-3.07
2022-12-11T23:45:30.143Z,-3.03
2022-12-11T23:47:56.417Z,-3.07
2022-12-11T23:50:22.678Z,-3.15
2022-12-11T23:52:48.957Z,-3.13
2022-12-11T23:55:15.314Z,-3.09
2022-12-11T23:57:41.620Z,-3.06
